sensor_id;sensor_type;location;lat;lon;timestamp;temperature;humidity
21259;DHT22;10787;53.364;-1.480;2022-12-18T00:03:48;1.00;99.90
21259;DHT22;10787;53.364;-1.480;2022-12-18T00:06:15;0.90;99.90
21259;DHT22;10787;53.364;-1.480;2022-12-18T00:08:41;0.90;99.90
21259;DHT22;10787;53.364;-1.480;2022-12-18T00:11:11;0.90;99.90
21259;DHT22;10787;53.364;-1.480;2022-12-18T00:13:37;0.90;99.90
21259;DHT22;10787;53.364;-1.480;2022-12-18T00:16:06;0.90;99.90
21259;DHT22;10787;53.364;-1.480;2022-12-18T00:18:32;1.00;99.90
21259;DHT22;10787;53.364;-1.480;2022-12-18T00:21:00;1.10;99.90
21259;DHT22;10787;53.364;-1.480;2022-12-18T00:23:31;1.10;99.90
21259;DHT22;10787;53.364;-1.480;2022-12-18T00:26:01;1.10;99.90
21259;DHT22;10787;53.364;-1.480;2022-12-18T00:28:27;1.10;99.90
21259;DHT22;10787;53.364;-1.480;2022-12-18T00:31:05;1.10;99.90
21259;DHT22;10787;53.364;-1.480;2022-12-18T00:33:31;1.10;99.90
21259;DHT22;10787;53.364;-1.480;2022-12-18T00:36:02;1.00;99.90
21259;DHT22;10787;53.364;-1.480;2022-12-18T00:38:28;0.90;99.90
21259;DHT22;10787;53.364;-1.480;2022-12-18T00:40:54;0.80;99.90
21259;DHT22;10787;53.364;-1.480;2022-12-18T00:43:20;0.80;99.90
21259;DHT22;10787;53.364;-1.480;2022-12-18T00:45:45;0.70;99.90
21259;DHT22;10787;53.364;-1.480;2022-12-18T00:48:11;0.60;99.90
21259;DHT22;10787;53.364;-1.480;2022-12-18T00:50:37;0.60;99.90
21259;DHT22;10787;53.364;-1.480;2022-12-18T00:53:03;0.50;99.90
21259;DHT22;10787;53.364;-1.480;2022-12-18T00:55:29;0.40;99.90
21259;DHT22;10787;53.364;-1.480;2022-12-18T00:57:55;0.40;99.90
21259;DHT22;10787;53.364;-1.480;2022-12-18T01:00:21;0.30;99.90
21259;DHT22;10787;53.364;-1.480;2022-12-18T01:02:48;0.20;99.90
21259;DHT22;10787;53.364;-1.480;2022-12-18T01:05:15;0.20;99.90
21259;DHT22;10787;53.364;-1.480;2022-12-18T01:07:40;0.10;99.90
21259;DHT22;10787;53.364;-1.480;2022-12-18T01:10:07;0.10;99.90
21259;DHT22;10787;53.364;-1.480;2022-12-18T01:12:34;0.10;99.90
21259;DHT22;10787;53.364;-1.480;2022-12-18T01:15:00;0.00;99.90
21259;DHT22;10787;53.364;-1.480;2022-12-18T01:17:25;0.00;99.90
21259;DHT22;10787;53.364;-1.480;2022-12-18T01:19:51;0.00;99.90
21259;DHT22;10787;53.364;-1.480;2022-12-18T01:22:17;-0.10;99.90
21259;DHT22;10787;53.364;-1.480;2022-12-18T01:24:43;-0.10;99.90
21259;DHT22;10787;53.364;-1.480;2022-12-18T01:27:09;-0.10;99.90
21259;DHT22;10787;53.364;-1.480;2022-12-18T01:29:34;-0.10;99.90
21259;DHT22;10787;53.364;-1.480;2022-12-18T01:32:00;-0.20;99.90
21259;DHT22;10787;53.364;-1.480;2022-12-18T01:34:26;-0.10;99.90
21259;DHT22;10787;53.364;-1.480;2022-12-18T01:36:52;-0.10;99.90
21259;DHT22;10787;53.364;-1.480;2022-12-18T01:39:18;-0.10;99.90
21259;DHT22;10787;53.364;-1.480;2022-12-18T01:41:45;-0.10;99.90
21259;DHT22;10787;53.364;-1.480;2022-12-18T01:47:18;-0.10;99.90
21259;DHT22;10787;53.364;-1.480;2022-12-18T01:49:46;-0.10;99.90
21259;DHT22;10787;53.364;-1.480;2022-12-18T01:52:12;-0.10;99.90
21259;DHT22;10787;53.364;-1.480;2022-12-18T01:54:39;-0.10;99.90
21259;DHT22;10787;53.364;-1.480;2022-12-18T01:57:05;-0.10;99.90
21259;DHT22;10787;53.364;-1.480;2022-12-18T01:59:32;-0.20;99.90
21259;DHT22;10787;53.364;-1.480;2022-12-18T02:01:59;-0.20;99.90
21259;DHT22;10787;53.364;-1.480;2022-12-18T02:04:26;-0.30;99.90
21259;DHT22;10787;53.364;-1.480;2022-12-18T02:07:44;-0.30;99.90
21259;DHT22;10787;53.364;-1.480;2022-12-18T02:10:00;-0.30;99.90
21259;DHT22;10787;53.364;-1.480;2022-12-18T02:12:45;-0.30;99.90
21259;DHT22;10787;53.364;-1.480;2022-12-18T02:15:26;-0.40;99.90
21259;DHT22;10787;53.364;-1.480;2022-12-18T02:18:05;-0.40;99.90
21259;DHT22;10787;53.364;-1.480;2022-12-18T02:20:41;-0.40;99.90
21259;DHT22;10787;53.364;-1.480;2022-12-18T02:28:11;-0.50;99.90
21259;DHT22;10787;53.364;-1.480;2022-12-18T02:30:37;-0.50;99.90
21259;DHT22;10787;53.364;-1.480;2022-12-18T02:33:06;-0.60;99.90
21259;DHT22;10787;53.364;-1.480;2022-12-18T02:35:36;-0.60;99.90
21259;DHT22;10787;53.364;-1.480;2022-12-18T02:38:04;-0.60;99.90
21259;DHT22;10787;53.364;-1.480;2022-12-18T02:40:31;-0.70;99.90
21259;DHT22;10787;53.364;-1.480;2022-12-18T02:43:13;-0.70;99.90
21259;DHT22;10787;53.364;-1.480;2022-12-18T02:45:55;-0.70;99.90
21259;DHT22;10787;53.364;-1.480;2022-12-18T02:48:25;-0.70;99.90
21259;DHT22;10787;53.364;-1.480;2022-12-18T02:51:55;-0.60;99.90
21259;DHT22;10787;53.364;-1.480;2022-12-18T02:54:09;-0.60;99.90
21259;DHT22;10787;53.364;-1.480;2022-12-18T02:56:49;-0.60;99.90
21259;DHT22;10787;53.364;-1.480;2022-12-18T02:59:19;-0.60;99.90
21259;DHT22;10787;53.364;-1.480;2022-12-18T03:04:43;-0.60;99.90
21259;DHT22;10787;53.364;-1.480;2022-12-18T03:07:20;-0.70;99.90
21259;DHT22;10787;53.364;-1.480;2022-12-18T03:09:50;-0.70;99.90
21259;DHT22;10787;53.364;-1.480;2022-12-18T03:15:10;-0.70;99.90
21259;DHT22;10787;53.364;-1.480;2022-12-18T03:17:39;-0.70;99.90
21259;DHT22;10787;53.364;-1.480;2022-12-18T03:20:14;-0.80;99.90
21259;DHT22;10787;53.364;-1.480;2022-12-18T03:22:43;-0.80;99.90
21259;DHT22;10787;53.364;-1.480;2022-12-18T03:25:13;-0.80;99.90
21259;DHT22;10787;53.364;-1.480;2022-12-18T03:27:44;-0.80;99.90
21259;DHT22;10787;53.364;-1.480;2022-12-18T03:30:14;-0.80;99.90
21259;DHT22;10787;53.364;-1.480;2022-12-18T03:36:01;-0.80;99.90
21259;DHT22;10787;53.364;-1.480;2022-12-18T03:38:28;-0.80;99.90
21259;DHT22;10787;53.364;-1.480;2022-12-18T03:43:38;-0.80;99.90
21259;DHT22;10787;53.364;-1.480;2022-12-18T03:46:29;-0.80;99.90
21259;DHT22;10787;53.364;-1.480;2022-12-18T03:49:01;-0.80;99.90
21259;DHT22;10787;53.364;-1.480;2022-12-18T03:51:50;-0.70;99.90
21259;DHT22;10787;53.364;-1.480;2022-12-18T03:54:18;-0.80;99.90
21259;DHT22;10787;53.364;-1.480;2022-12-18T03:56:48;-0.70;99.90
21259;DHT22;10787;53.364;-1.480;2022-12-18T03:59:16;-0.70;99.90
21259;DHT22;10787;53.364;-1.480;2022-12-18T04:01:46;-0.70;99.90
21259;DHT22;10787;53.364;-1.480;2022-12-18T04:04:15;-0.70;99.90
21259;DHT22;10787;53.364;-1.480;2022-12-18T04:06:43;-0.70;99.90
21259;DHT22;10787;53.364;-1.480;2022-12-18T04:09:11;-0.70;99.90
21259;DHT22;10787;53.364;-1.480;2022-12-18T04:11:37;-0.70;99.90
21259;DHT22;10787;53.364;-1.480;2022-12-18T04:14:03;-0.70;99.90
21259;DHT22;10787;53.364;-1.480;2022-12-18T04:16:29;-0.60;99.90
21259;DHT22;10787;53.364;-1.480;2022-12-18T04:18:56;-0.60;99.90
21259;DHT22;10787;53.364;-1.480;2022-12-18T04:21:21;-0.60;99.90
21259;DHT22;10787;53.364;-1.480;2022-12-18T04:23:48;-0.60;99.90
21259;DHT22;10787;53.364;-1.480;2022-12-18T04:26:14;-0.60;99.90
21259;DHT22;10787;53.364;-1.480;2022-12-18T04:28:52;-0.60;99.90
21259;DHT22;10787;53.364;-1.480;2022-12-18T04:31:18;-0.60;99.90
21259;DHT22;10787;53.364;-1.480;2022-12-18T04:33:44;-0.60;99.90
21259;DHT22;10787;53.364;-1.480;2022-12-18T04:36:10;-0.60;99.90
21259;DHT22;10787;53.364;-1.480;2022-12-18T04:38:38;-0.60;99.90
21259;DHT22;10787;53.364;-1.480;2022-12-18T04:41:04;-0.70;99.90
21259;DHT22;10787;53.364;-1.480;2022-12-18T04:43:30;-0.70;99.90
21259;DHT22;10787;53.364;-1.480;2022-12-18T04:46:05;-0.70;99.90
21259;DHT22;10787;53.364;-1.480;2022-12-18T04:48:32;-0.70;99.90
21259;DHT22;10787;53.364;-1.480;2022-12-18T04:50:57;-0.80;99.90
21259;DHT22;10787;53.364;-1.480;2022-12-18T04:53:23;-0.80;99.90
21259;DHT22;10787;53.364;-1.480;2022-12-18T04:55:50;-0.80;99.90
21259;DHT22;10787;53.364;-1.480;2022-12-18T04:58:16;-0.70;99.90
21259;DHT22;10787;53.364;-1.480;2022-12-18T05:00:41;-0.60;99.90
21259;DHT22;10787;53.364;-1.480;2022-12-18T05:03:07;-0.70;99.90
21259;DHT22;10787;53.364;-1.480;2022-12-18T05:05:35;-0.70;99.90
21259;DHT22;10787;53.364;-1.480;2022-12-18T05:08:01;-0.70;99.90
21259;DHT22;10787;53.364;-1.480;2022-12-18T05:10:26;-0.60;99.90
21259;DHT22;10787;53.364;-1.480;2022-12-18T05:12:52;-0.50;99.90
21259;DHT22;10787;53.364;-1.480;2022-12-18T05:15:31;-0.40;99.90
21259;DHT22;10787;53.364;-1.480;2022-12-18T05:17:58;-0.40;99.90
21259;DHT22;10787;53.364;-1.480;2022-12-18T05:20:25;-0.30;99.90
21259;DHT22;10787;53.364;-1.480;2022-12-18T05:22:51;-0.20;99.90
21259;DHT22;10787;53.364;-1.480;2022-12-18T05:25:18;-0.10;99.90
21259;DHT22;10787;53.364;-1.480;2022-12-18T05:27:44;-0.20;99.90
21259;DHT22;10787;53.364;-1.480;2022-12-18T05:30:11;-0.10;99.90
21259;DHT22;10787;53.364;-1.480;2022-12-18T05:32:38;-0.10;99.90
21259;DHT22;10787;53.364;-1.480;2022-12-18T05:35:04;-0.10;99.90
21259;DHT22;10787;53.364;-1.480;2022-12-18T05:37:31;-0.10;99.90
21259;DHT22;10787;53.364;-1.480;2022-12-18T05:39:56;-0.10;99.90
21259;DHT22;10787;53.364;-1.480;2022-12-18T05:42:22;-0.10;99.90
21259;DHT22;10787;53.364;-1.480;2022-12-18T05:44:48;-0.10;99.90
21259;DHT22;10787;53.364;-1.480;2022-12-18T05:47:15;0.00;99.90
21259;DHT22;10787;53.364;-1.480;2022-12-18T05:49:41;0.00;99.90
21259;DHT22;10787;53.364;-1.480;2022-12-18T05:52:07;0.00;99.90
21259;DHT22;10787;53.364;-1.480;2022-12-18T05:54:33;0.00;99.90
21259;DHT22;10787;53.364;-1.480;2022-12-18T05:56:59;0.10;99.90
21259;DHT22;10787;53.364;-1.480;2022-12-18T05:59:27;0.10;99.90
21259;DHT22;10787;53.364;-1.480;2022-12-18T06:01:53;0.00;99.90
21259;DHT22;10787;53.364;-1.480;2022-12-18T06:04:19;0.10;99.90
21259;DHT22;10787;53.364;-1.480;2022-12-18T06:06:45;0.10;99.90
21259;DHT22;10787;53.364;-1.480;2022-12-18T06:09:10;0.10;99.90
21259;DHT22;10787;53.364;-1.480;2022-12-18T06:11:38;0.10;99.90
21259;DHT22;10787;53.364;-1.480;2022-12-18T06:14:05;0.10;99.90
21259;DHT22;10787;53.364;-1.480;2022-12-18T06:16:32;0.10;99.90
21259;DHT22;10787;53.364;-1.480;2022-12-18T06:18:59;0.10;99.90
21259;DHT22;10787;53.364;-1.480;2022-12-18T06:21:25;0.00;99.90
21259;DHT22;10787;53.364;-1.480;2022-12-18T06:23:52;0.00;99.90
21259;DHT22;10787;53.364;-1.480;2022-12-18T06:26:33;0.00;99.90
21259;DHT22;10787;53.364;-1.480;2022-12-18T06:28:59;0.00;99.90
21259;DHT22;10787;53.364;-1.480;2022-12-18T06:31:25;0.00;99.90
21259;DHT22;10787;53.364;-1.480;2022-12-18T06:33:52;0.10;99.90
21259;DHT22;10787;53.364;-1.480;2022-12-18T06:36:17;0.10;99.90
21259;DHT22;10787;53.364;-1.480;2022-12-18T06:38:44;0.10;99.90
21259;DHT22;10787;53.364;-1.480;2022-12-18T06:41:15;0.20;99.90
21259;DHT22;10787;53.364;-1.480;2022-12-18T06:43:41;0.20;99.90
21259;DHT22;10787;53.364;-1.480;2022-12-18T06:46:08;0.20;99.90
21259;DHT22;10787;53.364;-1.480;2022-12-18T06:48:34;0.20;99.90
21259;DHT22;10787;53.364;-1.480;2022-12-18T06:51:00;0.10;99.90
21259;DHT22;10787;53.364;-1.480;2022-12-18T06:53:27;0.20;99.90
21259;DHT22;10787;53.364;-1.480;2022-12-18T06:56:00;0.20;99.90
21259;DHT22;10787;53.364;-1.480;2022-12-18T06:58:27;0.20;99.90
21259;DHT22;10787;53.364;-1.480;2022-12-18T07:00:52;0.20;99.90
21259;DHT22;10787;53.364;-1.480;2022-12-18T07:03:18;0.20;99.90
21259;DHT22;10787;53.364;-1.480;2022-12-18T07:05:44;0.20;99.90
21259;DHT22;10787;53.364;-1.480;2022-12-18T07:08:10;0.20;99.90
21259;DHT22;10787;53.364;-1.480;2022-12-18T07:10:43;0.20;99.90
21259;DHT22;10787;53.364;-1.480;2022-12-18T07:13:08;0.20;99.90
21259;DHT22;10787;53.364;-1.480;2022-12-18T07:15:34;0.20;99.90
21259;DHT22;10787;53.364;-1.480;2022-12-18T07:18:00;0.20;99.90
21259;DHT22;10787;53.364;-1.480;2022-12-18T07:20:27;0.20;99.90
21259;DHT22;10787;53.364;-1.480;2022-12-18T07:22:53;0.20;99.90
21259;DHT22;10787;53.364;-1.480;2022-12-18T07:25:20;0.10;99.90
21259;DHT22;10787;53.364;-1.480;2022-12-18T07:27:45;0.10;99.90
21259;DHT22;10787;53.364;-1.480;2022-12-18T07:30:11;0.10;99.90
21259;DHT22;10787;53.364;-1.480;2022-12-18T07:32:37;0.10;99.90
21259;DHT22;10787;53.364;-1.480;2022-12-18T07:35:04;0.10;99.90
21259;DHT22;10787;53.364;-1.480;2022-12-18T07:37:30;0.10;99.90
21259;DHT22;10787;53.364;-1.480;2022-12-18T07:39:56;0.10;99.90
21259;DHT22;10787;53.364;-1.480;2022-12-18T07:42:21;0.10;99.90
21259;DHT22;10787;53.364;-1.480;2022-12-18T07:44:59;0.10;99.90
21259;DHT22;10787;53.364;-1.480;2022-12-18T07:47:25;0.10;99.90
21259;DHT22;10787;53.364;-1.480;2022-12-18T07:49:51;0.00;99.90
21259;DHT22;10787;53.364;-1.480;2022-12-18T07:52:18;0.10;99.90
21259;DHT22;10787;53.364;-1.480;2022-12-18T07:54:44;0.00;99.90
21259;DHT22;10787;53.364;-1.480;2022-12-18T07:57:10;0.00;99.90
21259;DHT22;10787;53.364;-1.480;2022-12-18T07:59:36;0.00;99.90
21259;DHT22;10787;53.364;-1.480;2022-12-18T08:02:02;0.00;99.90
21259;DHT22;10787;53.364;-1.480;2022-12-18T08:04:28;0.00;99.90
21259;DHT22;10787;53.364;-1.480;2022-12-18T08:06:54;0.00;99.90
21259;DHT22;10787;53.364;-1.480;2022-12-18T08:09:21;0.00;99.90
21259;DHT22;10787;53.364;-1.480;2022-12-18T08:11:46;0.00;99.90
21259;DHT22;10787;53.364;-1.480;2022-12-18T08:14:12;0.00;99.90
21259;DHT22;10787;53.364;-1.480;2022-12-18T08:16:40;0.00;99.90
21259;DHT22;10787;53.364;-1.480;2022-12-18T08:19:06;0.00;99.90
21259;DHT22;10787;53.364;-1.480;2022-12-18T08:21:32;0.00;99.90
21259;DHT22;10787;53.364;-1.480;2022-12-18T08:24:00;0.00;99.90
21259;DHT22;10787;53.364;-1.480;2022-12-18T08:26:29;0.00;99.90
21259;DHT22;10787;53.364;-1.480;2022-12-18T08:28:56;0.00;99.90
21259;DHT22;10787;53.364;-1.480;2022-12-18T08:31:23;0.00;99.90
21259;DHT22;10787;53.364;-1.480;2022-12-18T08:33:50;0.00;99.90
21259;DHT22;10787;53.364;-1.480;2022-12-18T08:36:18;0.10;99.90
21259;DHT22;10787;53.364;-1.480;2022-12-18T08:38:43;0.00;99.90
21259;DHT22;10787;53.364;-1.480;2022-12-18T08:41:12;0.00;99.90
21259;DHT22;10787;53.364;-1.480;2022-12-18T08:43:38;0.00;99.90
21259;DHT22;10787;53.364;-1.480;2022-12-18T08:46:24;0.10;99.90
21259;DHT22;10787;53.364;-1.480;2022-12-18T08:48:52;0.10;99.90
21259;DHT22;10787;53.364;-1.480;2022-12-18T08:51:19;0.10;99.90
21259;DHT22;10787;53.364;-1.480;2022-12-18T08:53:46;0.10;99.90
21259;DHT22;10787;53.364;-1.480;2022-12-18T08:56:13;0.10;99.90
21259;DHT22;10787;53.364;-1.480;2022-12-18T08:58:40;0.10;99.90
21259;DHT22;10787;53.364;-1.480;2022-12-18T09:01:08;0.20;99.90
21259;DHT22;10787;53.364;-1.480;2022-12-18T09:03:34;0.20;99.90
21259;DHT22;10787;53.364;-1.480;2022-12-18T09:06:00;0.20;99.90
21259;DHT22;10787;53.364;-1.480;2022-12-18T09:08:28;0.10;99.90
21259;DHT22;10787;53.364;-1.480;2022-12-18T09:10:54;0.10;99.90
21259;DHT22;10787;53.364;-1.480;2022-12-18T09:13:21;0.10;99.90
21259;DHT22;10787;53.364;-1.480;2022-12-18T09:15:49;0.10;99.90
21259;DHT22;10787;53.364;-1.480;2022-12-18T09:18:17;0.10;99.90
21259;DHT22;10787;53.364;-1.480;2022-12-18T09:20:43;0.20;99.90
21259;DHT22;10787;53.364;-1.480;2022-12-18T09:23:09;0.10;99.90
21259;DHT22;10787;53.364;-1.480;2022-12-18T09:25:37;0.10;99.90
21259;DHT22;10787;53.364;-1.480;2022-12-18T09:28:05;0.20;99.90
21259;DHT22;10787;53.364;-1.480;2022-12-18T09:30:31;0.10;99.90
21259;DHT22;10787;53.364;-1.480;2022-12-18T09:33:00;0.20;99.90
21259;DHT22;10787;53.364;-1.480;2022-12-18T09:35:27;0.20;99.90
21259;DHT22;10787;53.364;-1.480;2022-12-18T09:37:54;0.20;99.90
21259;DHT22;10787;53.364;-1.480;2022-12-18T09:40:26;0.30;99.90
21259;DHT22;10787;53.364;-1.480;2022-12-18T09:42:59;0.30;99.90
21259;DHT22;10787;53.364;-1.480;2022-12-18T09:45:26;0.30;99.90
21259;DHT22;10787;53.364;-1.480;2022-12-18T09:47:54;0.40;99.90
21259;DHT22;10787;53.364;-1.480;2022-12-18T09:50:34;0.40;99.90
21259;DHT22;10787;53.364;-1.480;2022-12-18T09:53:15;0.40;99.90
21259;DHT22;10787;53.364;-1.480;2022-12-18T09:55:45;0.40;99.90
21259;DHT22;10787;53.364;-1.480;2022-12-18T10:00:58;0.40;99.90
21259;DHT22;10787;53.364;-1.480;2022-12-18T10:03:24;0.40;99.90
21259;DHT22;10787;53.364;-1.480;2022-12-18T10:09:13;0.40;99.90
21259;DHT22;10787;53.364;-1.480;2022-12-18T10:12:04;0.40;99.90
21259;DHT22;10787;53.364;-1.480;2022-12-18T10:15:06;0.50;99.90
21259;DHT22;10787;53.364;-1.480;2022-12-18T10:23:03;0.60;99.90
21259;DHT22;10787;53.364;-1.480;2022-12-18T10:28:13;0.60;99.90
21259;DHT22;10787;53.364;-1.480;2022-12-18T10:30:43;0.60;99.90
21259;DHT22;10787;53.364;-1.480;2022-12-18T10:33:20;0.80;99.90
21259;DHT22;10787;53.364;-1.480;2022-12-18T10:35:51;1.10;99.90
21259;DHT22;10787;53.364;-1.480;2022-12-18T10:41:03;1.60;99.90
21259;DHT22;10787;53.364;-1.480;2022-12-18T10:43:38;1.70;99.90
21259;DHT22;10787;53.364;-1.480;2022-12-18T10:46:07;1.60;99.90
21259;DHT22;10787;53.364;-1.480;2022-12-18T10:48:47;1.60;99.90
21259;DHT22;10787;53.364;-1.480;2022-12-18T10:51:24;1.50;99.90
21259;DHT22;10787;53.364;-1.480;2022-12-18T10:53:55;1.50;99.90
21259;DHT22;10787;53.364;-1.480;2022-12-18T10:56:42;1.50;99.90
21259;DHT22;10787;53.364;-1.480;2022-12-18T10:59:16;1.60;99.90
21259;DHT22;10787;53.364;-1.480;2022-12-18T11:01:52;1.60;99.90
21259;DHT22;10787;53.364;-1.480;2022-12-18T11:04:27;1.60;99.90
21259;DHT22;10787;53.364;-1.480;2022-12-18T11:06:58;1.60;99.90
21259;DHT22;10787;53.364;-1.480;2022-12-18T11:09:35;1.70;99.90
21259;DHT22;10787;53.364;-1.480;2022-12-18T11:14:42;1.70;99.90
21259;DHT22;10787;53.364;-1.480;2022-12-18T11:17:33;1.70;99.90
21259;DHT22;10787;53.364;-1.480;2022-12-18T11:20:20;1.80;99.90
21259;DHT22;10787;53.364;-1.480;2022-12-18T11:23:05;1.80;99.90
21259;DHT22;10787;53.364;-1.480;2022-12-18T11:25:33;1.90;99.90
21259;DHT22;10787;53.364;-1.480;2022-12-18T11:28:25;1.90;99.90
21259;DHT22;10787;53.364;-1.480;2022-12-18T11:31:16;1.90;99.90
21259;DHT22;10787;53.364;-1.480;2022-12-18T11:33:46;1.90;99.90
21259;DHT22;10787;53.364;-1.480;2022-12-18T11:36:14;2.00;99.90
21259;DHT22;10787;53.364;-1.480;2022-12-18T11:38:42;2.00;99.90
21259;DHT22;10787;53.364;-1.480;2022-12-18T11:41:29;2.00;99.90
21259;DHT22;10787;53.364;-1.480;2022-12-18T11:44:21;2.00;99.90
21259;DHT22;10787;53.364;-1.480;2022-12-18T11:49:49;1.90;99.90
21259;DHT22;10787;53.364;-1.480;2022-12-18T11:52:27;1.90;99.90
21259;DHT22;10787;53.364;-1.480;2022-12-18T11:55:00;1.90;99.90
21259;DHT22;10787;53.364;-1.480;2022-12-18T12:14:17;1.80;99.90
21259;DHT22;10787;53.364;-1.480;2022-12-18T12:22:35;1.80;99.90
21259;DHT22;10787;53.364;-1.480;2022-12-18T12:31:07;2.00;99.90
21259;DHT22;10787;53.364;-1.480;2022-12-18T12:38:59;2.10;99.90
21259;DHT22;10787;53.364;-1.480;2022-12-18T12:41:30;2.10;99.90
21259;DHT22;10787;53.364;-1.480;2022-12-18T12:44:24;2.10;99.90
21259;DHT22;10787;53.364;-1.480;2022-12-18T12:46:54;2.20;99.90
21259;DHT22;10787;53.364;-1.480;2022-12-18T12:49:25;2.20;99.90
21259;DHT22;10787;53.364;-1.480;2022-12-18T12:52:17;2.20;99.90
21259;DHT22;10787;53.364;-1.480;2022-12-18T12:54:46;2.20;99.90
21259;DHT22;10787;53.364;-1.480;2022-12-18T12:59:52;2.10;99.90
21259;DHT22;10787;53.364;-1.480;2022-12-18T13:05:38;2.00;99.90
21259;DHT22;10787;53.364;-1.480;2022-12-18T13:08:12;1.90;99.90
21259;DHT22;10787;53.364;-1.480;2022-12-18T13:10:47;1.90;99.90
21259;DHT22;10787;53.364;-1.480;2022-12-18T13:13:14;1.80;99.90
21259;DHT22;10787;53.364;-1.480;2022-12-18T13:15:45;1.80;99.90
21259;DHT22;10787;53.364;-1.480;2022-12-18T13:23:28;1.90;99.90
21259;DHT22;10787;53.364;-1.480;2022-12-18T13:26:00;2.00;99.90
21259;DHT22;10787;53.364;-1.480;2022-12-18T13:32:00;1.90;99.90
21259;DHT22;10787;53.364;-1.480;2022-12-18T13:36:42;1.90;99.90
21259;DHT22;10787;53.364;-1.480;2022-12-18T13:39:15;1.90;99.90
21259;DHT22;10787;53.364;-1.480;2022-12-18T13:41:50;1.90;99.90
21259;DHT22;10787;53.364;-1.480;2022-12-18T13:44:37;1.90;99.90
21259;DHT22;10787;53.364;-1.480;2022-12-18T13:47:30;1.90;99.90
21259;DHT22;10787;53.364;-1.480;2022-12-18T13:49:57;1.90;99.90
21259;DHT22;10787;53.364;-1.480;2022-12-18T13:52:27;1.80;99.90
21259;DHT22;10787;53.364;-1.480;2022-12-18T13:54:59;1.80;99.90
21259;DHT22;10787;53.364;-1.480;2022-12-18T13:57:29;1.80;99.90
21259;DHT22;10787;53.364;-1.480;2022-12-18T13:59:57;1.90;99.90
21259;DHT22;10787;53.364;-1.480;2022-12-18T14:02:26;1.90;99.90
21259;DHT22;10787;53.364;-1.480;2022-12-18T14:04:53;1.90;99.90
21259;DHT22;10787;53.364;-1.480;2022-12-18T14:07:28;1.90;99.90
21259;DHT22;10787;53.364;-1.480;2022-12-18T14:09:58;1.80;99.90
21259;DHT22;10787;53.364;-1.480;2022-12-18T14:12:31;1.80;99.90
21259;DHT22;10787;53.364;-1.480;2022-12-18T14:17:53;1.70;99.90
21259;DHT22;10787;53.364;-1.480;2022-12-18T14:20:20;1.70;99.90
21259;DHT22;10787;53.364;-1.480;2022-12-18T14:22:48;1.70;99.90
21259;DHT22;10787;53.364;-1.480;2022-12-18T14:25:24;1.60;99.90
21259;DHT22;10787;53.364;-1.480;2022-12-18T14:28:14;1.60;99.90
21259;DHT22;10787;53.364;-1.480;2022-12-18T14:30:45;1.60;99.90
21259;DHT22;10787;53.364;-1.480;2022-12-18T14:33:20;1.60;99.90
21259;DHT22;10787;53.364;-1.480;2022-12-18T14:36:02;1.60;99.90
21259;DHT22;10787;53.364;-1.480;2022-12-18T14:38:32;1.60;99.90
21259;DHT22;10787;53.364;-1.480;2022-12-18T14:41:00;1.50;99.90
21259;DHT22;10787;53.364;-1.480;2022-12-18T14:43:29;1.50;99.90
21259;DHT22;10787;53.364;-1.480;2022-12-18T14:45:56;1.50;99.90
21259;DHT22;10787;53.364;-1.480;2022-12-18T14:48:37;1.50;99.90
21259;DHT22;10787;53.364;-1.480;2022-12-18T14:51:17;1.50;99.90
21259;DHT22;10787;53.364;-1.480;2022-12-18T14:56:31;1.50;99.90
21259;DHT22;10787;53.364;-1.480;2022-12-18T14:59:04;1.50;99.90
21259;DHT22;10787;53.364;-1.480;2022-12-18T15:01:35;1.60;99.90
21259;DHT22;10787;53.364;-1.480;2022-12-18T15:04:04;1.60;99.90
21259;DHT22;10787;53.364;-1.480;2022-12-18T15:06:36;1.60;99.90
21259;DHT22;10787;53.364;-1.480;2022-12-18T15:09:22;1.50;99.90
21259;DHT22;10787;53.364;-1.480;2022-12-18T15:11:48;1.60;99.90
21259;DHT22;10787;53.364;-1.480;2022-12-18T15:14:40;1.60;99.90
21259;DHT22;10787;53.364;-1.480;2022-12-18T15:17:21;1.60;99.90
21259;DHT22;10787;53.364;-1.480;2022-12-18T15:19:51;1.60;99.90
21259;DHT22;10787;53.364;-1.480;2022-12-18T15:24:45;1.60;99.90
21259;DHT22;10787;53.364;-1.480;2022-12-18T15:27:40;1.60;99.90
21259;DHT22;10787;53.364;-1.480;2022-12-18T15:32:40;1.60;99.90
21259;DHT22;10787;53.364;-1.480;2022-12-18T15:35:23;1.60;99.90
21259;DHT22;10787;53.364;-1.480;2022-12-18T15:37:51;1.60;99.90
21259;DHT22;10787;53.364;-1.480;2022-12-18T15:40:20;1.60;99.90
21259;DHT22;10787;53.364;-1.480;2022-12-18T15:42:47;1.60;99.90
21259;DHT22;10787;53.364;-1.480;2022-12-18T15:45:32;1.60;99.90
21259;DHT22;10787;53.364;-1.480;2022-12-18T15:47:58;1.70;99.90
21259;DHT22;10787;53.364;-1.480;2022-12-18T15:50:24;1.60;99.90
21259;DHT22;10787;53.364;-1.480;2022-12-18T15:52:52;1.60;99.90
21259;DHT22;10787;53.364;-1.480;2022-12-18T15:55:21;1.60;99.90
21259;DHT22;10787;53.364;-1.480;2022-12-18T15:58:06;1.70;99.90
21259;DHT22;10787;53.364;-1.480;2022-12-18T16:00:33;1.70;99.90
21259;DHT22;10787;53.364;-1.480;2022-12-18T16:03:01;1.70;99.90
21259;DHT22;10787;53.364;-1.480;2022-12-18T16:05:29;1.70;99.90
21259;DHT22;10787;53.364;-1.480;2022-12-18T16:07:55;1.70;99.90
21259;DHT22;10787;53.364;-1.480;2022-12-18T16:10:21;1.70;99.90
21259;DHT22;10787;53.364;-1.480;2022-12-18T16:12:47;1.70;99.90
21259;DHT22;10787;53.364;-1.480;2022-12-18T16:15:14;1.70;99.90
21259;DHT22;10787;53.364;-1.480;2022-12-18T16:17:43;1.70;99.90
21259;DHT22;10787;53.364;-1.480;2022-12-18T16:20:17;1.70;99.90
21259;DHT22;10787;53.364;-1.480;2022-12-18T16:22:45;1.70;99.90
21259;DHT22;10787;53.364;-1.480;2022-12-18T16:25:21;1.80;99.90
21259;DHT22;10787;53.364;-1.480;2022-12-18T16:27:47;1.80;99.90
21259;DHT22;10787;53.364;-1.480;2022-12-18T16:30:15;1.80;99.90
21259;DHT22;10787;53.364;-1.480;2022-12-18T16:32:41;1.80;99.90
21259;DHT22;10787;53.364;-1.480;2022-12-18T16:35:10;1.90;99.90
21259;DHT22;10787;53.364;-1.480;2022-12-18T16:37:36;1.90;99.90
21259;DHT22;10787;53.364;-1.480;2022-12-18T16:40:02;1.90;99.90
21259;DHT22;10787;53.364;-1.480;2022-12-18T16:42:28;1.90;99.90
21259;DHT22;10787;53.364;-1.480;2022-12-18T16:44:56;1.90;99.90
21259;DHT22;10787;53.364;-1.480;2022-12-18T16:47:21;1.90;99.90
21259;DHT22;10787;53.364;-1.480;2022-12-18T16:49:47;1.90;99.90
21259;DHT22;10787;53.364;-1.480;2022-12-18T16:52:17;1.90;99.90
21259;DHT22;10787;53.364;-1.480;2022-12-18T16:54:43;1.90;99.90
21259;DHT22;10787;53.364;-1.480;2022-12-18T16:57:12;1.90;99.90
21259;DHT22;10787;53.364;-1.480;2022-12-18T16:59:38;2.00;99.90
21259;DHT22;10787;53.364;-1.480;2022-12-18T17:02:05;2.00;99.90
21259;DHT22;10787;53.364;-1.480;2022-12-18T17:04:31;2.00;99.90
21259;DHT22;10787;53.364;-1.480;2022-12-18T17:06:58;2.00;99.90
21259;DHT22;10787;53.364;-1.480;2022-12-18T17:09:23;2.00;99.90
21259;DHT22;10787;53.364;-1.480;2022-12-18T17:11:50;2.00;99.90
21259;DHT22;10787;53.364;-1.480;2022-12-18T17:14:21;2.00;99.90
21259;DHT22;10787;53.364;-1.480;2022-12-18T17:16:48;2.10;99.90
21259;DHT22;10787;53.364;-1.480;2022-12-18T17:19:14;2.10;99.90
21259;DHT22;10787;53.364;-1.480;2022-12-18T17:21:42;2.10;99.90
21259;DHT22;10787;53.364;-1.480;2022-12-18T17:24:08;2.20;99.90
21259;DHT22;10787;53.364;-1.480;2022-12-18T17:26:35;2.20;99.90
21259;DHT22;10787;53.364;-1.480;2022-12-18T17:29:02;2.20;99.90
21259;DHT22;10787;53.364;-1.480;2022-12-18T17:31:29;2.20;99.90